Time;durP1;ratioP1;P1;durP2;ratioP2;P2;SDS_P1;SDS_P2;PMS_P1;PMS_P2;Temp;Humidity;BMP_temperature;BMP_pressure;BME280_temperature;BME280_humidity;BME280_pressure;Samples;Min_cycle;Max_cycle;Signal;HPM_P1;HPM_P2
2023/07/10 00:02:02;;;;;;;4.07;2.50;;;;;;;;;;5056663;28;20739;-55
2023/07/10 00:04:28;;;;;;;3.65;2.28;;;;;;;;;;5064310;28;20479;-54
2023/07/10 00:06:53;;;;;;;3.90;2.50;;;;;;;;;;5062871;28;20012;-55
2023/07/10 00:09:18;;;;;;;4.83;2.70;;;;;;;;;;5045026;28;20786;-57
2023/07/10 00:11:43;;;;;;;3.63;2.63;;;;;;;;;;5047967;28;20262;-55
2023/07/10 00:14:15;;;;;;;3.80;2.45;;;;;;;;;;5022939;28;20377;-55
2023/07/10 00:16:40;;;;;;;5.28;2.60;;;;;;;;;;5055568;28;20102;-55
2023/07/10 00:19:13;;;;;;;4.73;2.53;;;;;;;;;;5044784;28;20508;-55
2023/07/10 00:21:38;;;;;;;4.55;2.78;;;;;;;;;;5051463;28;20511;-55
2023/07/10 00:24:03;;;;;;;3.97;2.70;;;;;;;;;;5051343;28;20039;-55
2023/07/10 00:26:29;;;;;;;5.18;3.05;;;;;;;;;;5046740;28;20363;-56
2023/07/10 00:28:58;;;;;;;3.83;2.53;;;;;;;;;;5064977;28;20400;-54
2023/07/10 00:31:24;;;;;;;3.92;2.75;;;;;;;;;;5064362;28;20040;-56
2023/07/10 00:33:50;;;;;;;4.70;2.58;;;;;;;;;;5055532;28;20037;-55
2023/07/10 00:36:21;;;;;;;9.25;2.97;;;;;;;;;;5044921;28;20381;-55
2023/07/10 00:38:46;;;;;;;3.72;2.88;;;;;;;;;;5045025;28;20040;-55
2023/07/10 00:41:11;;;;;;;3.87;2.70;;;;;;;;;;5044823;28;20049;-54
2023/07/10 00:43:56;;;;;;;3.50;2.63;;;;;;;;;;5024836;28;20032;-56
2023/07/10 00:46:27;;;;;;;4.75;2.90;;;;;;;;;;5064212;28;20799;-56
2023/07/10 00:48:53;;;;;;;3.75;2.35;;;;;;;;;;5046725;28;20040;-55
2023/07/10 00:51:20;;;;;;;5.70;2.78;;;;;;;;;;5048198;28;20041;-55
2023/07/10 00:53:45;;;;;;;6.05;2.78;;;;;;;;;;5044605;28;20105;-56
2023/07/10 00:56:12;;;;;;;6.03;2.90;;;;;;;;;;5041437;28;20485;-55
2023/07/10 00:58:38;;;;;;;3.63;2.65;;;;;;;;;;5046851;28;20266;-55
2023/07/10 01:01:07;;;;;;;5.45;2.85;;;;;;;;;;5060543;28;20726;-55
2023/07/10 01:03:33;;;;;;;4.63;3.03;;;;;;;;;;5057959;28;20390;-55
2023/07/10 01:05:59;;;;;;;6.15;2.95;;;;;;;;;;5062370;28;20028;-55
2023/07/10 01:08:24;;;;;;;5.55;2.75;;;;;;;;;;5049989;28;20539;-55
2023/07/10 01:10:50;;;;;;;5.25;2.80;;;;;;;;;;5068420;28;20124;-55
2023/07/10 01:13:16;;;;;;;6.68;2.72;;;;;;;;;;5060790;28;20120;-55
2023/07/10 01:15:41;;;;;;;6.80;3.67;;;;;;;;;;5048348;28;20469;-55
2023/07/10 01:18:10;;;;;;;5.85;3.53;;;;;;;;;;5048333;28;20294;-55
2023/07/10 01:20:39;;;;;;;5.18;3.15;;;;;;;;;;5048140;28;20109;-56
2023/07/10 01:23:04;;;;;;;4.15;2.92;;;;;;;;;;5047966;28;20055;-55
2023/07/10 01:25:29;;;;;;;4.15;2.88;;;;;;;;;;5048867;28;20416;-55
2023/07/10 01:27:55;;;;;;;4.57;2.88;;;;;;;;;;5048727;28;20038;-55
2023/07/10 01:30:25;;;;;;;4.90;3.23;;;;;;;;;;5048313;28;20488;-55
2023/07/10 01:32:51;;;;;;;3.83;2.90;;;;;;;;;;5027226;28;20037;-55
2023/07/10 01:35:17;;;;;;;5.68;2.85;;;;;;;;;;5063844;28;20017;-54
2023/07/10 01:37:42;;;;;;;4.18;2.72;;;;;;;;;;5049104;28;20029;-56
2023/07/10 01:40:09;;;;;;;4.67;2.80;;;;;;;;;;5066928;28;20082;-55
2023/07/10 01:42:34;;;;;;;5.45;3.25;;;;;;;;;;5040087;28;20652;-56
2023/07/10 01:44:59;;;;;;;5.90;3.07;;;;;;;;;;5047189;28;20079;-56
2023/07/10 01:47:24;;;;;;;4.97;3.20;;;;;;;;;;5048438;28;20911;-55
2023/07/10 01:49:54;;;;;;;4.77;3.17;;;;;;;;;;5047901;28;20790;-54
2023/07/10 01:52:20;;;;;;;6.80;3.60;;;;;;;;;;5047681;28;20033;-56
2023/07/10 01:54:45;;;;;;;5.13;3.00;;;;;;;;;;5062005;28;20064;-56
2023/07/10 01:57:11;;;;;;;4.10;3.13;;;;;;;;;;5048311;28;20041;-57
2023/07/10 01:59:36;;;;;;;5.03;3.13;;;;;;;;;;5046859;28;20037;-53
2023/07/10 02:02:02;;;;;;;5.32;3.45;;;;;;;;;;5058092;28;20136;-55
2023/07/10 02:04:27;;;;;;;5.05;3.38;;;;;;;;;;5057401;28;20069;-56
2023/07/10 02:06:55;;;;;;;3.97;3.17;;;;;;;;;;5047693;28;20097;-55
2023/07/10 02:09:24;;;;;;;6.72;3.35;;;;;;;;;;5036799;28;20037;-55
2023/07/10 02:11:49;;;;;;;4.40;3.58;;;;;;;;;;5050762;28;20033;-55
2023/07/10 02:14:14;;;;;;;5.17;3.40;;;;;;;;;;5052724;28;20029;-57
2023/07/10 02:16:39;;;;;;;6.33;3.23;;;;;;;;;;5048636;28;20279;-55
2023/07/10 02:19:05;;;;;;;4.37;3.07;;;;;;;;;;5046317;28;20275;-55
2023/07/10 02:21:31;;;;;;;4.13;2.95;;;;;;;;;;5047191;28;20533;-55
2023/07/10 02:23:56;;;;;;;5.45;3.03;;;;;;;;;;5057075;28;20033;-56
2023/07/10 02:26:21;;;;;;;6.27;3.57;;;;;;;;;;5066676;28;20525;-55
2023/07/10 02:28:47;;;;;;;4.53;3.03;;;;;;;;;;5060897;28;20280;-54
2023/07/10 02:31:12;;;;;;;4.93;3.47;;;;;;;;;;5052437;28;20028;-54
2023/07/10 02:33:37;;;;;;;5.90;3.40;;;;;;;;;;5066720;28;20352;-54
2023/07/10 02:36:03;;;;;;;4.97;3.53;;;;;;;;;;5066081;28;20376;-55
2023/07/10 02:38:28;;;;;;;5.03;3.38;;;;;;;;;;5063986;28;20275;-56
2023/07/10 02:40:53;;;;;;;4.60;2.93;;;;;;;;;;5049924;28;20040;-56
2023/07/10 02:43:19;;;;;;;6.60;3.08;;;;;;;;;;5046289;28;20670;-56
2023/07/10 02:45:44;;;;;;;5.97;3.70;;;;;;;;;;5046778;28;20426;-57
2023/07/10 02:48:09;;;;;;;4.35;3.17;;;;;;;;;;5046902;28;20025;-55
2023/07/10 02:50:35;;;;;;;4.85;3.10;;;;;;;;;;5029287;28;20037;-55
2023/07/10 02:53:00;;;;;;;4.60;3.23;;;;;;;;;;5046849;28;20033;-55
2023/07/10 02:55:25;;;;;;;5.17;3.30;;;;;;;;;;5055928;28;20280;-55
2023/07/10 02:57:50;;;;;;;4.53;3.63;;;;;;;;;;5046707;28;20532;-56
2023/07/10 03:00:16;;;;;;;4.57;3.53;;;;;;;;;;5051670;28;20032;-55
2023/07/10 03:02:41;;;;;;;5.28;3.28;;;;;;;;;;5062725;28;20278;-55
2023/07/10 03:05:07;;;;;;;4.75;3.28;;;;;;;;;;5031024;28;20029;-55
2023/07/10 03:07:32;;;;;;;4.70;3.35;;;;;;;;;;5053655;28;20033;-55
2023/07/10 03:09:57;;;;;;;4.93;3.60;;;;;;;;;;5031274;28;20108;-55
2023/07/10 03:12:23;;;;;;;3.83;2.93;;;;;;;;;;5046355;28;20044;-55
2023/07/10 03:14:48;;;;;;;4.50;3.30;;;;;;;;;;5049388;28;20134;-55
2023/07/10 03:17:13;;;;;;;3.88;2.88;;;;;;;;;;5050376;28;20112;-55
2023/07/10 03:19:39;;;;;;;5.07;3.40;;;;;;;;;;5046666;28;20048;-56
2023/07/10 03:22:04;;;;;;;3.40;3.03;;;;;;;;;;5046617;28;20116;-55
2023/07/10 03:24:29;;;;;;;5.47;3.50;;;;;;;;;;5052269;28;20317;-55
2023/07/10 03:26:54;;;;;;;5.82;3.30;;;;;;;;;;5065579;28;20037;-55
2023/07/10 03:29:20;;;;;;;4.17;2.80;;;;;;;;;;5064993;28;20527;-57
2023/07/10 03:31:45;;;;;;;5.25;3.30;;;;;;;;;;5065895;28;20564;-56
2023/07/10 03:34:11;;;;;;;5.53;3.30;;;;;;;;;;5055478;28;20060;-54
2023/07/10 03:36:36;;;;;;;4.85;3.40;;;;;;;;;;5045824;28;20298;-55
2023/07/10 03:39:01;;;;;;;4.50;3.20;;;;;;;;;;5045695;28;20517;-55
2023/07/10 03:41:27;;;;;;;6.63;3.40;;;;;;;;;;5045783;28;20286;-55
2023/07/10 03:43:52;;;;;;;5.87;3.10;;;;;;;;;;5046713;28;20304;-55
2023/07/10 03:46:17;;;;;;;6.47;3.58;;;;;;;;;;5032870;28;20280;-55
2023/07/10 03:48:43;;;;;;;5.00;3.30;;;;;;;;;;5027578;28;20040;-55
2023/07/10 03:51:08;;;;;;;5.43;3.13;;;;;;;;;;5045613;28;20036;-54
2023/07/10 03:53:33;;;;;;;6.40;3.75;;;;;;;;;;5027384;28;20035;-55
2023/07/10 03:55:59;;;;;;;5.88;3.60;;;;;;;;;;5058351;28;20408;-54
2023/07/10 03:58:25;;;;;;;4.90;3.43;;;;;;;;;;5064309;28;20141;-54
2023/07/10 04:00:50;;;;;;;5.93;3.75;;;;;;;;;;5055147;28;20318;-57
2023/07/10 04:03:15;;;;;;;6.03;3.55;;;;;;;;;;5051855;28;20041;-55
2023/07/10 04:05:48;;;;;;;5.75;3.55;;;;;;;;;;5048426;28;20036;-55
2023/07/10 04:08:13;;;;;;;8.23;3.80;;;;;;;;;;5052416;28;20144;-56
2023/07/10 04:10:38;;;;;;;5.30;3.40;;;;;;;;;;5048531;28;20036;-56
2023/07/10 04:13:03;;;;;;;5.57;3.20;;;;;;;;;;5055423;28;20400;-55
2023/07/10 04:15:29;;;;;;;6.37;3.23;;;;;;;;;;5064231;28;20391;-54
2023/07/10 04:17:54;;;;;;;4.60;3.50;;;;;;;;;;5049896;28;20124;-54
2023/07/10 04:20:19;;;;;;;4.40;3.20;;;;;;;;;;5046733;28;20102;-56
2023/07/10 04:22:44;;;;;;;6.38;3.30;;;;;;;;;;5064268;28;20294;-55
2023/07/10 04:25:10;;;;;;;5.75;3.15;;;;;;;;;;5063035;28;20050;-56
2023/07/10 04:27:35;;;;;;;4.88;3.10;;;;;;;;;;5064365;28;20035;-55
2023/07/10 04:30:00;;;;;;;5.90;3.40;;;;;;;;;;5058085;28;20025;-55
2023/07/10 04:32:25;;;;;;;7.53;3.77;;;;;;;;;;5029888;28;20275;-57
2023/07/10 04:34:51;;;;;;;5.20;3.50;;;;;;;;;;5055124;28;20284;-56
2023/07/10 04:37:16;;;;;;;5.47;3.27;;;;;;;;;;5054023;28;20408;-55
2023/07/10 04:39:41;;;;;;;5.53;3.60;;;;;;;;;;5056921;28;20119;-53
2023/07/10 04:42:06;;;;;;;7.03;3.33;;;;;;;;;;5040997;28;20504;-56
2023/07/10 04:44:32;;;;;;;4.70;3.30;;;;;;;;;;5058664;28;20279;-56
2023/07/10 04:46:57;;;;;;;6.83;3.73;;;;;;;;;;5058544;28;20013;-54
2023/07/10 04:49:22;;;;;;;4.37;3.07;;;;;;;;;;5058820;28;20324;-57
2023/07/10 04:51:47;;;;;;;6.30;3.23;;;;;;;;;;5059203;28;20367;-55
2023/07/10 04:54:13;;;;;;;5.65;3.20;;;;;;;;;;5041858;28;20307;-53
2023/07/10 04:56:38;;;;;;;6.05;3.45;;;;;;;;;;5058200;28;20044;-54
2023/07/10 04:59:03;;;;;;;6.57;3.40;;;;;;;;;;5056432;28;20469;-56
2023/07/10 05:01:29;;;;;;;6.23;4.07;;;;;;;;;;5055992;28;20329;-55
2023/07/10 05:03:55;;;;;;;8.55;3.83;;;;;;;;;;5056505;28;20274;-56
2023/07/10 05:06:20;;;;;;;6.43;3.50;;;;;;;;;;5055048;28;20028;-54
2023/07/10 05:08:45;;;;;;;6.38;3.33;;;;;;;;;;5055885;28;20036;-56
2023/07/10 05:11:11;;;;;;;7.15;3.80;;;;;;;;;;5054278;28;20536;-56
2023/07/10 05:13:36;;;;;;;7.17;4.10;;;;;;;;;;5036433;28;20024;-54
2023/07/10 05:16:01;;;;;;;5.72;3.80;;;;;;;;;;5053636;28;20695;-54
2023/07/10 05:18:27;;;;;;;7.30;3.73;;;;;;;;;;5056022;28;20028;-54
2023/07/10 05:20:52;;;;;;;8.10;3.55;;;;;;;;;;5043893;28;20829;-56
2023/07/10 05:23:17;;;;;;;5.28;3.88;;;;;;;;;;5056903;28;20039;-55
2023/07/10 05:25:58;;;;;;;7.40;4.18;;;;;;;;;;5056049;28;20028;-55
2023/07/10 05:28:23;;;;;;;7.63;3.80;;;;;;;;;;5055399;28;20116;-55
2023/07/10 05:30:49;;;;;;;8.93;3.70;;;;;;;;;;5055281;28;20119;-55
2023/07/10 05:33:14;;;;;;;10.03;4.57;;;;;;;;;;5056350;28;20043;-55
2023/07/10 05:35:47;;;;;;;6.17;4.10;;;;;;;;;;5038906;28;20997;-54
2023/07/10 05:38:12;;;;;;;5.88;3.97;;;;;;;;;;5057545;28;20028;-54
2023/07/10 05:40:40;;;;;;;7.70;4.07;;;;;;;;;;5056177;28;20044;-54
2023/07/10 05:43:05;;;;;;;6.88;4.05;;;;;;;;;;5039576;28;20071;-55
2023/07/10 05:45:31;;;;;;;6.03;4.03;;;;;;;;;;5056738;28;20060;-55
2023/07/10 05:47:56;;;;;;;7.32;4.32;;;;;;;;;;5038328;28;20036;-55
2023/07/10 05:50:21;;;;;;;9.23;4.53;;;;;;;;;;5057215;28;20043;-54
2023/07/10 05:52:46;;;;;;;7.63;4.23;;;;;;;;;;5063159;28;20052;-55
2023/07/10 05:55:12;;;;;;;8.33;3.63;;;;;;;;;;5059725;28;20036;-55
2023/07/10 05:57:37;;;;;;;7.35;3.97;;;;;;;;;;5058276;28;20040;-57
2023/07/10 06:00:03;;;;;;;8.52;4.00;;;;;;;;;;5032156;28;20041;-55
2023/07/10 06:02:28;;;;;;;5.53;3.70;;;;;;;;;;5058956;28;20032;-54
2023/07/10 06:04:53;;;;;;;7.38;3.90;;;;;;;;;;5042186;28;20527;-57
2023/07/10 06:07:19;;;;;;;5.53;3.78;;;;;;;;;;5041824;28;20506;-56
2023/07/10 06:09:44;;;;;;;7.47;4.00;;;;;;;;;;5058053;28;20029;-56
2023/07/10 06:12:09;;;;;;;6.40;3.63;;;;;;;;;;5055494;28;20418;-55
2023/07/10 06:14:34;;;;;;;9.03;3.50;;;;;;;;;;5059624;28;20208;-55
2023/07/10 06:17:00;;;;;;;8.63;3.40;;;;;;;;;;5053858;28;20846;-55
2023/07/10 06:19:26;;;;;;;7.93;4.05;;;;;;;;;;5054616;28;20043;-55
2023/07/10 06:21:52;;;;;;;5.10;3.53;;;;;;;;;;5060210;28;20028;-55
2023/07/10 06:24:17;;;;;;;6.40;3.80;;;;;;;;;;5044861;28;20031;-56
2023/07/10 06:26:42;;;;;;;6.83;3.87;;;;;;;;;;5033829;28;20037;-54
2023/07/10 06:29:07;;;;;;;7.40;3.33;;;;;;;;;;5041864;28;20037;-55
2023/07/10 06:31:33;;;;;;;5.93;3.30;;;;;;;;;;5053375;28;20037;-56
2023/07/10 06:33:58;;;;;;;8.00;3.33;;;;;;;;;;5059213;28;20033;-55
2023/07/10 06:36:23;;;;;;;6.27;3.90;;;;;;;;;;5062730;28;20126;-55
2023/07/10 06:38:48;;;;;;;7.30;3.27;;;;;;;;;;5061016;28;20283;-56
2023/07/10 06:41:14;;;;;;;6.00;3.03;;;;;;;;;;5043771;28;20296;-55
2023/07/10 06:43:39;;;;;;;6.73;3.60;;;;;;;;;;5057479;28;20374;-56
2023/07/10 06:46:04;;;;;;;5.33;3.57;;;;;;;;;;5060547;28;20037;-54
2023/07/10 06:48:29;;;;;;;5.60;3.40;;;;;;;;;;5059340;28;20120;-55
2023/07/10 06:50:55;;;;;;;4.57;3.00;;;;;;;;;;5058818;28;20290;-54
2023/07/10 06:53:20;;;;;;;6.10;3.40;;;;;;;;;;5033060;28;20124;-56
2023/07/10 06:55:51;;;;;;;5.20;3.50;;;;;;;;;;5054447;28;20043;-55
2023/07/10 06:58:16;;;;;;;7.75;3.20;;;;;;;;;;5043724;28;20128;-55
2023/07/10 07:00:42;;;;;;;5.93;3.25;;;;;;;;;;5061738;28;20508;-54
2023/07/10 07:03:08;;;;;;;5.53;3.58;;;;;;;;;;5059503;28;21612;-55
2023/07/10 07:05:33;;;;;;;6.22;3.10;;;;;;;;;;5059335;28;20175;-54
2023/07/10 07:07:59;;;;;;;5.85;3.15;;;;;;;;;;5061103;28;20116;-54
2023/07/10 07:10:24;;;;;;;6.60;3.25;;;;;;;;;;5033655;28;20125;-54
2023/07/10 07:12:49;;;;;;;6.55;3.33;;;;;;;;;;5054360;28;20066;-55
2023/07/10 07:15:14;;;;;;;6.30;3.27;;;;;;;;;;5055380;28;20149;-55
2023/07/10 07:17:40;;;;;;;5.30;3.47;;;;;;;;;;5055860;28;20283;-56
2023/07/10 07:20:06;;;;;;;8.07;3.43;;;;;;;;;;5041307;28;20076;-53
2023/07/10 07:22:31;;;;;;;4.97;3.20;;;;;;;;;;5061906;28;20118;-55
2023/07/10 07:24:56;;;;;;;5.50;3.03;;;;;;;;;;5056892;28;20025;-56
2023/07/10 07:27:22;;;;;;;5.60;3.20;;;;;;;;;;5053406;28;20822;-55
2023/07/10 07:29:50;;;;;;;4.65;3.33;;;;;;;;;;5053312;28;20471;-55
2023/07/10 07:32:16;;;;;;;5.53;3.20;;;;;;;;;;5053047;28;20098;-56
2023/07/10 07:34:41;;;;;;;4.83;3.30;;;;;;;;;;5053570;28;20036;-55
2023/07/10 07:37:06;;;;;;;6.10;2.90;;;;;;;;;;5056933;28;20283;-56
2023/07/10 07:39:32;;;;;;;5.40;3.27;;;;;;;;;;5039463;28;20207;-56
2023/07/10 07:41:57;;;;;;;5.18;3.08;;;;;;;;;;5058483;28;20648;-55
2023/07/10 07:44:23;;;;;;;4.07;2.85;;;;;;;;;;5032273;28;20036;-56
2023/07/10 07:46:48;;;;;;;4.57;3.00;;;;;;;;;;5059631;28;20063;-55
2023/07/10 07:49:13;;;;;;;4.17;2.83;;;;;;;;;;5043834;28;20278;-54
2023/07/10 07:51:38;;;;;;;5.37;3.10;;;;;;;;;;5058335;28;20345;-56
2023/07/10 07:54:10;;;;;;;5.82;3.35;;;;;;;;;;5056538;28;20279;-54
2023/07/10 07:56:36;;;;;;;3.90;2.75;;;;;;;;;;5057752;28;20082;-57
2023/07/10 07:59:01;;;;;;;6.33;3.17;;;;;;;;;;5057104;28;20056;-55
2023/07/10 08:01:26;;;;;;;6.30;3.50;;;;;;;;;;5054602;28;20053;-56
2023/07/10 08:03:51;;;;;;;6.40;3.17;;;;;;;;;;5059294;28;20294;-55
2023/07/10 08:06:16;;;;;;;5.27;3.33;;;;;;;;;;5056476;28;20036;-55
2023/07/10 08:08:42;;;;;;;5.00;3.20;;;;;;;;;;5054870;28;20284;-54
2023/07/10 08:11:07;;;;;;;5.00;3.07;;;;;;;;;;5057933;28;20357;-55
2023/07/10 08:13:32;;;;;;;5.77;3.10;;;;;;;;;;5052856;28;20049;-55
2023/07/10 08:15:58;;;;;;;6.40;3.13;;;;;;;;;;5044310;28;21192;-55
2023/07/10 08:18:23;;;;;;;5.20;3.03;;;;;;;;;;5057125;28;20488;-55
2023/07/10 08:20:48;;;;;;;4.88;2.88;;;;;;;;;;5042952;28;20200;-55
2023/07/10 08:23:14;;;;;;;4.03;2.80;;;;;;;;;;5056174;28;20039;-56
2023/07/10 08:25:39;;;;;;;4.47;3.03;;;;;;;;;;5048075;28;20029;-57
2023/07/10 08:28:04;;;;;;;3.57;2.77;;;;;;;;;;5054755;28;21052;-54
2023/07/10 08:30:29;;;;;;;3.90;2.50;;;;;;;;;;5056482;28;20564;-54
2023/07/10 08:32:54;;;;;;;3.63;2.67;;;;;;;;;;5059919;28;20446;-54
2023/07/10 08:35:21;;;;;;;5.03;2.90;;;;;;;;;;5058765;28;20290;-56
2023/07/10 08:37:47;;;;;;;4.68;2.75;;;;;;;;;;5061598;28;20071;-56
2023/07/10 08:40:15;;;;;;;3.70;2.72;;;;;;;;;;5062036;28;20496;-55
2023/07/10 08:42:41;;;;;;;3.15;2.47;;;;;;;;;;5060990;28;20119;-55
2023/07/10 08:45:08;;;;;;;4.20;2.90;;;;;;;;;;5057231;28;20112;-55
2023/07/10 08:47:34;;;;;;;3.25;2.38;;;;;;;;;;5042659;28;20290;-55
2023/07/10 08:49:59;;;;;;;3.58;2.70;;;;;;;;;;5043919;28;20037;-55
2023/07/10 08:52:36;;;;;;;4.03;3.43;;;;;;;;;;5062003;28;20480;-54
2023/07/10 08:55:01;;;;;;;3.75;2.40;;;;;;;;;;5040785;28;20044;-56
2023/07/10 08:57:26;;;;;;;4.43;3.00;;;;;;;;;;5044422;28;20738;-54
2023/07/10 09:00:04;;;;;;;3.57;2.70;;;;;;;;;;5055237;28;20310;-56
2023/07/10 09:02:40;;;;;;;5.30;2.92;;;;;;;;;;5060256;28;20052;-56
2023/07/10 09:05:06;;;;;;;4.05;2.97;;;;;;;;;;5035499;28;20049;-56
2023/07/10 09:07:36;;;;;;;3.88;2.60;;;;;;;;;;5044574;28;20040;-55
2023/07/10 09:10:03;;;;;;;3.50;2.78;;;;;;;;;;5032070;28;20041;-55
2023/07/10 09:12:41;;;;;;;4.88;2.80;;;;;;;;;;5051348;28;20067;-55
2023/07/10 09:15:07;;;;;;;3.67;2.85;;;;;;;;;;5029117;28;20060;-55
2023/07/10 09:17:50;;;;;;;3.50;2.80;;;;;;;;;;5050503;28;20116;-55
2023/07/10 09:20:16;;;;;;;3.90;2.70;;;;;;;;;;5029948;28;20052;-56
2023/07/10 09:22:48;;;;;;;3.45;2.80;;;;;;;;;;5015034;28;20051;-55
2023/07/10 09:25:13;;;;;;;4.30;2.92;;;;;;;;;;5049802;28;20434;-55
2023/07/10 09:27:45;;;;;;;3.80;2.67;;;;;;;;;;5051853;28;20131;-55
2023/07/10 09:30:30;;;;;;;3.97;3.00;;;;;;;;;;5053673;28;20048;-55
2023/07/10 09:32:59;;;;;;;4.55;2.80;;;;;;;;;;5051637;28;20037;-55
2023/07/10 09:35:25;;;;;;;5.65;3.17;;;;;;;;;;5053890;28;20036;-62
2023/07/10 09:37:50;;;;;;;4.07;2.88;;;;;;;;;;5050069;28;20039;-61
2023/07/10 09:40:20;;;;;;;5.47;2.97;;;;;;;;;;5051471;28;20075;-63
2023/07/10 09:42:46;;;;;;;4.20;3.13;;;;;;;;;;5053999;28;20361;-62
2023/07/10 09:45:11;;;;;;;3.45;2.70;;;;;;;;;;5027513;28;20036;-62
2023/07/10 09:47:40;;;;;;;4.72;2.75;;;;;;;;;;5041395;28;20064;-62
2023/07/10 09:50:05;;;;;;;4.88;2.53;;;;;;;;;;5034110;28;20523;-63
2023/07/10 09:52:32;;;;;;;3.47;2.50;;;;;;;;;;5041603;28;20039;-61
2023/07/10 09:55:23;;;;;;;3.53;2.50;;;;;;;;;;5053709;28;20048;-62
2023/07/10 09:58:01;;;;;;;3.13;2.63;;;;;;;;;;5051781;28;20043;-61
2023/07/10 10:00:27;;;;;;;3.75;2.78;;;;;;;;;;5053792;28;20062;-61
2023/07/10 10:02:55;;;;;;;3.42;2.35;;;;;;;;;;5018002;28;21969;-63
2023/07/10 10:05:21;;;;;;;4.65;2.45;;;;;;;;;;5050990;28;20037;-63
2023/07/10 10:07:47;;;;;;;3.43;2.63;;;;;;;;;;5038512;28;21153;-63
2023/07/10 10:10:19;;;;;;;3.70;2.38;;;;;;;;;;5053514;28;20291;-63
2023/07/10 10:12:44;;;;;;;3.13;2.28;;;;;;;;;;5054009;28;20052;-63
2023/07/10 10:15:30;;;;;;;3.05;2.50;;;;;;;;;;5054323;28;20033;-63
2023/07/10 10:17:57;;;;;;;3.63;2.60;;;;;;;;;;5053488;28;20040;-63
2023/07/10 10:20:26;;;;;;;3.25;2.25;;;;;;;;;;5053765;28;20055;-62
2023/07/10 10:22:51;;;;;;;3.95;2.40;;;;;;;;;;5037848;28;20071;-63
2023/07/10 10:25:17;;;;;;;3.85;2.55;;;;;;;;;;5054631;28;20185;-62
2023/07/10 10:27:42;;;;;;;3.78;2.45;;;;;;;;;;5037045;28;20157;-62
2023/07/10 10:30:13;;;;;;;3.00;2.23;;;;;;;;;;5037258;28;20059;-62
2023/07/10 10:32:44;;;;;;;3.80;3.08;;;;;;;;;;5049736;28;20051;-62
2023/07/10 10:35:24;;;;;;;3.80;2.70;;;;;;;;;;5050663;28;21735;-61
2023/07/10 10:38:09;;;;;;;2.63;2.38;;;;;;;;;;5054932;28;20039;-62
2023/07/10 10:40:34;;;;;;;3.70;2.55;;;;;;;;;;5050906;28;20076;-62
2023/07/10 10:43:06;;;;;;;4.47;2.80;;;;;;;;;;5054910;28;20806;-62
2023/07/10 10:45:31;;;;;;;4.22;2.60;;;;;;;;;;5056767;28;20040;-61
2023/07/10 10:47:56;;;;;;;3.85;2.90;;;;;;;;;;5056564;28;20039;-62
2023/07/10 10:50:28;;;;;;;3.70;2.55;;;;;;;;;;5052190;28;20117;-60
2023/07/10 10:53:05;;;;;;;4.97;2.50;;;;;;;;;;5055286;28;20053;-61
2023/07/10 10:55:51;;;;;;;3.72;2.47;;;;;;;;;;5056889;28;20063;-62
2023/07/10 10:58:22;;;;;;;4.45;2.33;;;;;;;;;;5047291;28;20125;-61
2023/07/10 11:00:50;;;;;;;4.00;2.70;;;;;;;;;;5055523;28;20054;-61
2023/07/10 11:03:31;;;;;;;3.13;2.40;;;;;;;;;;5056873;28;21826;-62
2023/07/10 11:05:57;;;;;;;3.65;2.53;;;;;;;;;;5038284;28;20059;-61
2023/07/10 11:08:24;;;;;;;6.05;2.67;;;;;;;;;;5056743;28;20044;-62
2023/07/10 11:10:49;;;;;;;3.17;2.20;;;;;;;;;;5054583;28;20037;-61
2023/07/10 11:13:18;;;;;;;2.97;2.43;;;;;;;;;;5035768;28;20366;-62
2023/07/10 11:15:43;;;;;;;3.13;2.60;;;;;;;;;;5055224;28;20044;-62
2023/07/10 11:18:08;;;;;;;4.63;2.87;;;;;;;;;;5046115;28;20048;-62
2023/07/10 11:20:34;;;;;;;4.00;2.50;;;;;;;;;;5055920;28;20717;-62
2023/07/10 11:23:01;;;;;;;3.75;2.47;;;;;;;;;;5055650;28;20363;-61
2023/07/10 11:25:31;;;;;;;5.15;2.50;;;;;;;;;;5055225;28;20039;-60
2023/07/10 11:27:56;;;;;;;3.42;2.20;;;;;;;;;;5037742;28;20045;-62
2023/07/10 11:30:29;;;;;;;4.23;2.07;;;;;;;;;;5022322;28;21890;-62
2023/07/10 11:32:55;;;;;;;3.33;2.40;;;;;;;;;;5055570;28;21650;-61
2023/07/10 11:35:21;;;;;;;3.47;2.40;;;;;;;;;;5055058;28;20221;-62
2023/07/10 11:37:49;;;;;;;3.78;2.55;;;;;;;;;;5054139;28;20127;-61
2023/07/10 11:40:23;;;;;;;3.45;2.63;;;;;;;;;;5054685;28;20024;-61
2023/07/10 11:42:49;;;;;;;3.55;2.63;;;;;;;;;;5055955;28;20020;-62
2023/07/10 11:45:14;;;;;;;3.55;2.63;;;;;;;;;;5054554;28;20507;-61
2023/07/10 11:47:41;;;;;;;4.35;2.72;;;;;;;;;;5058893;28;20032;-62
2023/07/10 11:50:12;;;;;;;3.40;2.67;;;;;;;;;;5049730;28;20024;-62
2023/07/10 11:52:38;;;;;;;3.30;2.50;;;;;;;;;;5025977;28;20180;-59
2023/07/10 11:55:07;;;;;;;4.05;2.70;;;;;;;;;;5031924;28;20064;-62
2023/07/10 11:57:33;;;;;;;5.00;2.47;;;;;;;;;;5044316;28;20033;-60
2023/07/10 11:59:59;;;;;;;3.60;2.60;;;;;;;;;;5043956;28;20044;-60
2023/07/10 12:02:24;;;;;;;3.63;2.35;;;;;;;;;;5060299;28;20131;-62
2023/07/10 12:04:50;;;;;;;3.87;2.50;;;;;;;;;;5059187;28;20048;-61
2023/07/10 12:07:15;;;;;;;5.63;2.50;;;;;;;;;;5045634;28;20040;-60
2023/07/10 12:09:40;;;;;;;2.93;2.50;;;;;;;;;;5056572;28;20305;-60
2023/07/10 12:12:14;;;;;;;3.43;2.40;;;;;;;;;;5043606;28;20283;-61
2023/07/10 12:14:40;;;;;;;3.88;2.55;;;;;;;;;;5044255;28;21252;-60
2023/07/10 12:17:09;;;;;;;4.72;2.33;;;;;;;;;;5034867;28;20060;-62
2023/07/10 12:19:35;;;;;;;2.78;2.38;;;;;;;;;;5029567;28;20064;-62
2023/07/10 12:22:12;;;;;;;3.10;2.20;;;;;;;;;;5051290;28;20103;-61
2023/07/10 12:24:37;;;;;;;3.10;2.40;;;;;;;;;;5037708;28;20032;-62
2023/07/10 12:27:03;;;;;;;3.50;2.13;;;;;;;;;;5053471;28;20040;-62
2023/07/10 12:29:28;;;;;;;3.10;2.25;;;;;;;;;;5051046;28;20289;-62
2023/07/10 12:31:53;;;;;;;3.07;2.30;;;;;;;;;;5052218;28;20075;-62
2023/07/10 12:34:25;;;;;;;4.10;2.57;;;;;;;;;;5035014;28;20283;-59
2023/07/10 12:36:51;;;;;;;3.33;2.42;;;;;;;;;;5031749;28;20072;-61
2023/07/10 12:39:17;;;;;;;3.17;2.42;;;;;;;;;;5051749;28;20052;-62
2023/07/10 12:41:45;;;;;;;3.97;2.50;;;;;;;;;;5037290;28;20041;-60
2023/07/10 12:44:26;;;;;;;3.92;2.20;;;;;;;;;;5061466;28;20270;-62
2023/07/10 12:46:58;;;;;;;4.65;2.78;;;;;;;;;;5055090;28;20079;-62
2023/07/10 12:49:27;;;;;;;2.65;2.25;;;;;;;;;;5062059;28;20408;-62
2023/07/10 12:51:52;;;;;;;;;;;;;;;;;;5057277;28;20887;-61
2023/07/10 12:54:18;;;;;;;4.30;2.90;;;;;;;;;;5053522;28;19912;-61
2023/07/10 12:56:43;;;;;;;3.67;2.80;;;;;;;;;;5045414;28;20044;-61
2023/07/10 12:59:11;;;;;;;3.40;2.47;;;;;;;;;;5063988;28;20270;-61
2023/07/10 13:01:36;;;;;;;3.88;2.55;;;;;;;;;;5034098;28;20490;-61
2023/07/10 13:04:13;;;;;;;3.33;2.50;;;;;;;;;;5048987;28;20068;-61
2023/07/10 13:06:38;;;;;;;3.67;2.55;;;;;;;;;;5062587;28;20460;-61
2023/07/10 13:09:04;;;;;;;3.63;2.50;;;;;;;;;;5047886;28;20033;-61
2023/07/10 13:11:30;;;;;;;4.32;2.45;;;;;;;;;;5050059;28;20348;-61
2023/07/10 13:13:55;;;;;;;5.03;2.65;;;;;;;;;;5063875;28;20037;-61
2023/07/10 13:16:25;;;;;;;5.68;2.78;;;;;;;;;;5045204;28;20037;-61
2023/07/10 13:18:51;;;;;;;3.63;2.33;;;;;;;;;;5047621;28;20045;-61
2023/07/10 13:21:16;;;;;;;4.57;2.60;;;;;;;;;;5066980;28;20038;-61
2023/07/10 13:23:42;;;;;;;3.60;2.63;;;;;;;;;;5066881;28;20777;-61
2023/07/10 13:26:16;;;;;;;5.05;2.60;;;;;;;;;;5066969;28;20016;-61
2023/07/10 13:28:41;;;;;;;3.92;2.50;;;;;;;;;;5061483;28;20108;-61
2023/07/10 13:31:06;;;;;;;3.40;2.60;;;;;;;;;;5066385;28;20030;-61
2023/07/10 13:33:31;;;;;;;4.77;2.70;;;;;;;;;;5065427;28;20514;-61
2023/07/10 13:35:57;;;;;;;3.93;2.90;;;;;;;;;;5031184;28;20532;-61
2023/07/10 13:38:23;;;;;;;4.40;3.10;;;;;;;;;;5040521;28;20444;-61
2023/07/10 13:40:48;;;;;;;3.65;2.75;;;;;;;;;;5066128;28;20109;-62
2023/07/10 13:43:14;;;;;;;3.57;2.80;;;;;;;;;;5066317;28;20017;-60
2023/07/10 13:45:40;;;;;;;3.47;2.80;;;;;;;;;;5043876;28;20702;-62
2023/07/10 13:48:12;;;;;;;3.72;2.90;;;;;;;;;;5058447;28;20020;-61
2023/07/10 13:50:37;;;;;;;4.32;3.05;;;;;;;;;;5047795;28;20040;-61
2023/07/10 13:53:03;;;;;;;4.47;2.90;;;;;;;;;;5066409;28;20035;-61
2023/07/10 13:55:28;;;;;;;3.65;2.47;;;;;;;;;;5044339;28;20124;-62
2023/07/10 13:57:53;;;;;;;5.23;3.00;;;;;;;;;;5057752;28;20029;-63
2023/07/10 14:00:19;;;;;;;4.60;3.07;;;;;;;;;;5068732;28;20044;-60
2023/07/10 14:02:47;;;;;;;5.40;2.95;;;;;;;;;;5060268;28;20109;-62
2023/07/10 14:05:12;;;;;;;4.65;3.00;;;;;;;;;;5063843;28;20047;-59
2023/07/10 14:07:39;;;;;;;4.95;2.70;;;;;;;;;;5053081;28;20490;-60
2023/07/10 14:10:04;;;;;;;5.00;2.92;;;;;;;;;;5046548;28;20087;-61
2023/07/10 14:12:30;;;;;;;3.97;3.20;;;;;;;;;;5045847;28;20484;-61
2023/07/10 14:14:56;;;;;;;4.78;2.85;;;;;;;;;;5028231;28;20112;-61
2023/07/10 14:17:23;;;;;;;4.80;2.90;;;;;;;;;;5048334;28;20037;-61
2023/07/10 14:19:49;;;;;;;3.38;2.85;;;;;;;;;;5046489;28;20527;-60
2023/07/10 14:22:14;;;;;;;3.90;3.10;;;;;;;;;;5046348;28;20444;-61
2023/07/10 14:24:39;;;;;;;3.37;2.97;;;;;;;;;;5065538;28;20040;-61
2023/07/10 14:27:25;;;;;;;4.57;3.10;;;;;;;;;;5063878;28;20354;-61
2023/07/10 14:29:50;;;;;;;3.97;3.33;;;;;;;;;;5046054;28;20087;-61
2023/07/10 14:32:16;;;;;;;4.82;3.20;;;;;;;;;;5026351;28;20704;-61
2023/07/10 14:34:42;;;;;;;4.38;3.28;;;;;;;;;;5064249;28;20054;-61
2023/07/10 14:37:11;;;;;;;4.87;2.80;;;;;;;;;;5035927;28;20044;-61
2023/07/10 14:39:36;;;;;;;3.70;3.15;;;;;;;;;;5044789;28;20279;-61
2023/07/10 14:42:01;;;;;;;3.70;3.20;;;;;;;;;;5065233;28;20071;-61